sensor_id;sensor_type;location;lat;lon;timestamp;temperature;humidity
19025;DHT22;9645;51.448;6.260;2024-01-30T00:01:54;7.40;99.90
19025;DHT22;9645;51.448;6.260;2024-01-30T00:04:21;7.50;99.90
19025;DHT22;9645;51.448;6.260;2024-01-30T00:06:50;7.40;99.90
19025;DHT22;9645;51.448;6.260;2024-01-30T00:09:18;7.40;99.90
19025;DHT22;9645;51.448;6.260;2024-01-30T00:11:45;7.50;99.90
19025;DHT22;9645;51.448;6.260;2024-01-30T00:14:12;7.40;99.90
19025;DHT22;9645;51.448;6.260;2024-01-30T00:16:39;7.50;99.90
19025;DHT22;9645;51.448;6.260;2024-01-30T00:19:06;7.40;99.90
19025;DHT22;9645;51.448;6.260;2024-01-30T00:21:34;7.50;99.90
19025;DHT22;9645;51.448;6.260;2024-01-30T00:24:02;7.40;99.90
19025;DHT22;9645;51.448;6.260;2024-01-30T00:26:29;7.40;99.90
19025;DHT22;9645;51.448;6.260;2024-01-30T00:28:57;7.30;99.90
19025;DHT22;9645;51.448;6.260;2024-01-30T00:31:24;7.40;99.90
19025;DHT22;9645;51.448;6.260;2024-01-30T00:33:51;7.40;99.90
19025;DHT22;9645;51.448;6.260;2024-01-30T00:36:18;7.40;99.90
19025;DHT22;9645;51.448;6.260;2024-01-30T00:38:46;7.40;99.90
19025;DHT22;9645;51.448;6.260;2024-01-30T00:41:15;7.40;99.90
19025;DHT22;9645;51.448;6.260;2024-01-30T00:43:44;7.40;99.90
19025;DHT22;9645;51.448;6.260;2024-01-30T00:46:12;7.40;99.90
19025;DHT22;9645;51.448;6.260;2024-01-30T00:48:39;7.50;99.90
19025;DHT22;9645;51.448;6.260;2024-01-30T00:51:07;7.40;99.90
19025;DHT22;9645;51.448;6.260;2024-01-30T00:53:34;7.40;99.90
19025;DHT22;9645;51.448;6.260;2024-01-30T00:56:01;7.40;99.90
19025;DHT22;9645;51.448;6.260;2024-01-30T00:58:30;7.40;99.90
19025;DHT22;9645;51.448;6.260;2024-01-30T01:00:57;7.40;99.90
19025;DHT22;9645;51.448;6.260;2024-01-30T01:03:24;7.30;99.90
19025;DHT22;9645;51.448;6.260;2024-01-30T01:05:51;7.30;99.90
19025;DHT22;9645;51.448;6.260;2024-01-30T01:08:18;7.20;99.90
19025;DHT22;9645;51.448;6.260;2024-01-30T01:10:46;7.30;99.90
19025;DHT22;9645;51.448;6.260;2024-01-30T01:13:13;6.90;99.90
19025;DHT22;9645;51.448;6.260;2024-01-30T01:15:43;7.10;99.90
19025;DHT22;9645;51.448;6.260;2024-01-30T01:18:10;7.10;99.90
19025;DHT22;9645;51.448;6.260;2024-01-30T01:20:37;7.00;99.90
19025;DHT22;9645;51.448;6.260;2024-01-30T01:23:04;7.00;99.90
19025;DHT22;9645;51.448;6.260;2024-01-30T01:25:31;7.00;99.90
19025;DHT22;9645;51.448;6.260;2024-01-30T01:27:58;7.00;99.90
19025;DHT22;9645;51.448;6.260;2024-01-30T01:30:27;7.00;99.90
19025;DHT22;9645;51.448;6.260;2024-01-30T01:32:56;7.00;99.90
19025;DHT22;9645;51.448;6.260;2024-01-30T01:35:26;6.90;99.90
19025;DHT22;9645;51.448;6.260;2024-01-30T01:37:54;7.00;99.90
19025;DHT22;9645;51.448;6.260;2024-01-30T01:40:22;6.90;99.90
19025;DHT22;9645;51.448;6.260;2024-01-30T01:42:50;6.90;99.90
19025;DHT22;9645;51.448;6.260;2024-01-30T01:45:18;6.90;99.90
19025;DHT22;9645;51.448;6.260;2024-01-30T01:47:47;6.80;99.90
19025;DHT22;9645;51.448;6.260;2024-01-30T01:50:18;6.80;99.90
19025;DHT22;9645;51.448;6.260;2024-01-30T01:52:48;6.80;99.90
19025;DHT22;9645;51.448;6.260;2024-01-30T01:55:16;6.80;99.90
19025;DHT22;9645;51.448;6.260;2024-01-30T01:57:47;6.80;99.90
19025;DHT22;9645;51.448;6.260;2024-01-30T02:00:14;6.80;99.90
19025;DHT22;9645;51.448;6.260;2024-01-30T02:02:41;6.70;99.90
19025;DHT22;9645;51.448;6.260;2024-01-30T02:05:10;6.80;99.90
19025;DHT22;9645;51.448;6.260;2024-01-30T02:07:38;6.80;99.90
19025;DHT22;9645;51.448;6.260;2024-01-30T02:10:07;6.70;99.90
19025;DHT22;9645;51.448;6.260;2024-01-30T02:12:35;6.70;99.90
19025;DHT22;9645;51.448;6.260;2024-01-30T02:15:02;6.70;99.90
19025;DHT22;9645;51.448;6.260;2024-01-30T02:17:30;6.70;99.90
19025;DHT22;9645;51.448;6.260;2024-01-30T02:19:57;6.70;99.90
19025;DHT22;9645;51.448;6.260;2024-01-30T02:22:26;6.70;99.90
19025;DHT22;9645;51.448;6.260;2024-01-30T02:24:53;6.70;99.90
19025;DHT22;9645;51.448;6.260;2024-01-30T02:27:22;6.70;99.90
19025;DHT22;9645;51.448;6.260;2024-01-30T02:29:50;6.70;99.90
19025;DHT22;9645;51.448;6.260;2024-01-30T02:32:17;6.70;99.90
19025;DHT22;9645;51.448;6.260;2024-01-30T02:34:44;6.80;99.90
19025;DHT22;9645;51.448;6.260;2024-01-30T02:37:11;6.80;99.90
19025;DHT22;9645;51.448;6.260;2024-01-30T02:39:40;7.50;99.90
19025;DHT22;9645;51.448;6.260;2024-01-30T02:42:07;6.80;99.90
19025;DHT22;9645;51.448;6.260;2024-01-30T02:44:34;6.70;99.90
19025;DHT22;9645;51.448;6.260;2024-01-30T02:47:01;7.00;99.90
19025;DHT22;9645;51.448;6.260;2024-01-30T02:49:28;6.80;99.90
19025;DHT22;9645;51.448;6.260;2024-01-30T02:51:55;6.80;99.90
19025;DHT22;9645;51.448;6.260;2024-01-30T02:54:22;6.80;99.90
19025;DHT22;9645;51.448;6.260;2024-01-30T02:56:51;6.80;99.90
19025;DHT22;9645;51.448;6.260;2024-01-30T02:59:18;6.90;99.90
19025;DHT22;9645;51.448;6.260;2024-01-30T03:01:45;7.00;99.90
19025;DHT22;9645;51.448;6.260;2024-01-30T03:04:13;6.70;99.90
19025;DHT22;9645;51.448;6.260;2024-01-30T03:06:45;6.80;99.90
19025;DHT22;9645;51.448;6.260;2024-01-30T03:09:12;7.10;99.90
19025;DHT22;9645;51.448;6.260;2024-01-30T03:11:39;6.70;99.90
19025;DHT22;9645;51.448;6.260;2024-01-30T03:14:07;6.70;99.90
19025;DHT22;9645;51.448;6.260;2024-01-30T03:16:36;6.70;99.90
19025;DHT22;9645;51.448;6.260;2024-01-30T03:19:04;6.60;99.90
19025;DHT22;9645;51.448;6.260;2024-01-30T03:21:31;6.70;99.90
19025;DHT22;9645;51.448;6.260;2024-01-30T03:23:58;6.60;99.90
19025;DHT22;9645;51.448;6.260;2024-01-30T03:26:25;6.60;99.90
19025;DHT22;9645;51.448;6.260;2024-01-30T03:28:52;6.60;99.90
19025;DHT22;9645;51.448;6.260;2024-01-30T03:31:21;6.60;99.90
19025;DHT22;9645;51.448;6.260;2024-01-30T03:33:48;6.60;99.90
19025;DHT22;9645;51.448;6.260;2024-01-30T03:36:15;6.60;99.90
19025;DHT22;9645;51.448;6.260;2024-01-30T03:38:43;6.60;99.90
19025;DHT22;9645;51.448;6.260;2024-01-30T03:41:10;6.70;99.90
19025;DHT22;9645;51.448;6.260;2024-01-30T03:43:37;6.60;99.90
19025;DHT22;9645;51.448;6.260;2024-01-30T03:46:04;6.80;99.90
19025;DHT22;9645;51.448;6.260;2024-01-30T03:48:33;6.70;99.90
19025;DHT22;9645;51.448;6.260;2024-01-30T03:51:00;6.70;99.90
19025;DHT22;9645;51.448;6.260;2024-01-30T03:53:27;6.80;99.90
19025;DHT22;9645;51.448;6.260;2024-01-30T03:55:54;6.60;99.90
19025;DHT22;9645;51.448;6.260;2024-01-30T03:58:21;6.60;99.90
19025;DHT22;9645;51.448;6.260;2024-01-30T04:00:48;6.80;99.90
19025;DHT22;9645;51.448;6.260;2024-01-30T04:03:15;6.70;99.90
19025;DHT22;9645;51.448;6.260;2024-01-30T04:05:44;6.80;99.90
19025;DHT22;9645;51.448;6.260;2024-01-30T04:08:11;6.70;99.90
19025;DHT22;9645;51.448;6.260;2024-01-30T04:10:39;6.70;99.90
19025;DHT22;9645;51.448;6.260;2024-01-30T04:13:06;6.60;99.90
19025;DHT22;9645;51.448;6.260;2024-01-30T04:15:33;6.60;99.90
19025;DHT22;9645;51.448;6.260;2024-01-30T04:18:00;6.60;99.90
19025;DHT22;9645;51.448;6.260;2024-01-30T04:20:29;6.70;99.90
19025;DHT22;9645;51.448;6.260;2024-01-30T04:22:57;6.70;99.90
19025;DHT22;9645;51.448;6.260;2024-01-30T04:25:25;6.70;99.90
19025;DHT22;9645;51.448;6.260;2024-01-30T04:27:52;6.70;99.90
19025;DHT22;9645;51.448;6.260;2024-01-30T04:30:19;6.80;99.90
19025;DHT22;9645;51.448;6.260;2024-01-30T04:32:46;6.80;99.90
19025;DHT22;9645;51.448;6.260;2024-01-30T04:35:13;6.70;99.90
19025;DHT22;9645;51.448;6.260;2024-01-30T04:37:40;6.70;99.90
19025;DHT22;9645;51.448;6.260;2024-01-30T04:40:09;6.70;99.90
19025;DHT22;9645;51.448;6.260;2024-01-30T04:42:37;6.70;99.90
19025;DHT22;9645;51.448;6.260;2024-01-30T04:45:06;6.70;99.90
19025;DHT22;9645;51.448;6.260;2024-01-30T04:47:33;6.60;99.90
19025;DHT22;9645;51.448;6.260;2024-01-30T04:50:01;6.60;99.90
19025;DHT22;9645;51.448;6.260;2024-01-30T04:52:30;6.60;99.90
19025;DHT22;9645;51.448;6.260;2024-01-30T04:54:57;6.70;99.90
19025;DHT22;9645;51.448;6.260;2024-01-30T04:57:26;6.60;99.90
19025;DHT22;9645;51.448;6.260;2024-01-30T04:59:53;6.50;99.90
19025;DHT22;9645;51.448;6.260;2024-01-30T05:02:20;6.50;99.90
19025;DHT22;9645;51.448;6.260;2024-01-30T05:04:48;6.70;99.90
19025;DHT22;9645;51.448;6.260;2024-01-30T05:07:15;6.60;99.90
19025;DHT22;9645;51.448;6.260;2024-01-30T05:09:42;6.60;99.90
19025;DHT22;9645;51.448;6.260;2024-01-30T05:12:09;6.50;99.90
19025;DHT22;9645;51.448;6.260;2024-01-30T05:14:38;6.40;99.90
19025;DHT22;9645;51.448;6.260;2024-01-30T05:17:05;6.50;99.90
19025;DHT22;9645;51.448;6.260;2024-01-30T05:19:33;6.40;99.90
19025;DHT22;9645;51.448;6.260;2024-01-30T05:22:00;6.50;99.90
19025;DHT22;9645;51.448;6.260;2024-01-30T05:24:27;6.50;99.90
19025;DHT22;9645;51.448;6.260;2024-01-30T05:26:54;6.60;99.90
19025;DHT22;9645;51.448;6.260;2024-01-30T05:29:21;6.50;99.90
19025;DHT22;9645;51.448;6.260;2024-01-30T05:31:50;6.40;99.90
19025;DHT22;9645;51.448;6.260;2024-01-30T05:34:17;6.40;99.90
19025;DHT22;9645;51.448;6.260;2024-01-30T05:36:44;6.60;99.90
19025;DHT22;9645;51.448;6.260;2024-01-30T05:39:11;6.50;99.90
19025;DHT22;9645;51.448;6.260;2024-01-30T05:41:39;6.60;99.90
19025;DHT22;9645;51.448;6.260;2024-01-30T05:44:06;6.60;99.90
19025;DHT22;9645;51.448;6.260;2024-01-30T05:46:33;6.70;99.90
19025;DHT22;9645;51.448;6.260;2024-01-30T05:49:02;7.00;99.90
19025;DHT22;9645;51.448;6.260;2024-01-30T05:51:29;6.80;99.90
19025;DHT22;9645;51.448;6.260;2024-01-30T05:53:56;6.80;99.90
19025;DHT22;9645;51.448;6.260;2024-01-30T05:56:23;6.70;99.90
19025;DHT22;9645;51.448;6.260;2024-01-30T05:58:50;6.70;99.90
19025;DHT22;9645;51.448;6.260;2024-01-30T06:01:17;6.70;99.90
19025;DHT22;9645;51.448;6.260;2024-01-30T06:03:44;6.70;99.90
19025;DHT22;9645;51.448;6.260;2024-01-30T06:06:13;6.80;99.90
19025;DHT22;9645;51.448;6.260;2024-01-30T06:08:40;6.80;99.90
19025;DHT22;9645;51.448;6.260;2024-01-30T06:11:10;6.70;99.90
19025;DHT22;9645;51.448;6.260;2024-01-30T06:13:37;6.60;99.90
19025;DHT22;9645;51.448;6.260;2024-01-30T06:16:04;6.70;99.90
19025;DHT22;9645;51.448;6.260;2024-01-30T06:18:32;6.70;99.90
19025;DHT22;9645;51.448;6.260;2024-01-30T06:20:59;6.70;99.90
19025;DHT22;9645;51.448;6.260;2024-01-30T06:23:29;6.60;99.90
19025;DHT22;9645;51.448;6.260;2024-01-30T06:25:56;6.60;99.90
19025;DHT22;9645;51.448;6.260;2024-01-30T06:28:25;6.70;99.90
19025;DHT22;9645;51.448;6.260;2024-01-30T06:30:54;6.70;99.90
19025;DHT22;9645;51.448;6.260;2024-01-30T06:33:21;6.60;99.90
19025;DHT22;9645;51.448;6.260;2024-01-30T06:35:48;6.60;99.90
19025;DHT22;9645;51.448;6.260;2024-01-30T06:38:15;6.60;99.90
19025;DHT22;9645;51.448;6.260;2024-01-30T06:40:52;6.70;99.90
19025;DHT22;9645;51.448;6.260;2024-01-30T06:43:19;6.60;99.90
19025;DHT22;9645;51.448;6.260;2024-01-30T06:49:31;6.70;99.90
19025;DHT22;9645;51.448;6.260;2024-01-30T06:52:07;6.60;99.90
19025;DHT22;9645;51.448;6.260;2024-01-30T06:54:40;6.60;99.90
19025;DHT22;9645;51.448;6.260;2024-01-30T06:57:09;6.60;99.90
19025;DHT22;9645;51.448;6.260;2024-01-30T06:59:37;6.70;99.90
19025;DHT22;9645;51.448;6.260;2024-01-30T07:15:49;6.20;99.90
19025;DHT22;9645;51.448;6.260;2024-01-30T07:18:15;7.00;99.90
19025;DHT22;9645;51.448;6.260;2024-01-30T07:20:42;7.10;99.90
19025;DHT22;9645;51.448;6.260;2024-01-30T07:23:11;7.00;99.90
19025;DHT22;9645;51.448;6.260;2024-01-30T07:25:39;7.00;99.90
19025;DHT22;9645;51.448;6.260;2024-01-30T07:28:07;7.00;99.90
19025;DHT22;9645;51.448;6.260;2024-01-30T07:30:35;7.10;99.90
19025;DHT22;9645;51.448;6.260;2024-01-30T07:33:03;7.10;99.90
19025;DHT22;9645;51.448;6.260;2024-01-30T07:35:30;7.10;99.90
19025;DHT22;9645;51.448;6.260;2024-01-30T07:37:57;7.10;99.90
19025;DHT22;9645;51.448;6.260;2024-01-30T07:40:24;7.10;99.90
19025;DHT22;9645;51.448;6.260;2024-01-30T07:42:52;7.00;99.90
19025;DHT22;9645;51.448;6.260;2024-01-30T07:45:19;7.10;99.90
19025;DHT22;9645;51.448;6.260;2024-01-30T07:47:48;7.20;99.90
19025;DHT22;9645;51.448;6.260;2024-01-30T07:50:16;7.20;99.90
19025;DHT22;9645;51.448;6.260;2024-01-30T07:52:44;7.20;99.90
19025;DHT22;9645;51.448;6.260;2024-01-30T07:55:11;6.80;99.90
19025;DHT22;9645;51.448;6.260;2024-01-30T07:57:39;7.30;99.90
19025;DHT22;9645;51.448;6.260;2024-01-30T08:00:06;7.30;99.90
19025;DHT22;9645;51.448;6.260;2024-01-30T08:02:34;7.40;99.90
19025;DHT22;9645;51.448;6.260;2024-01-30T08:05:00;7.30;99.90
19025;DHT22;9645;51.448;6.260;2024-01-30T08:07:29;7.40;99.90
19025;DHT22;9645;51.448;6.260;2024-01-30T08:09:56;7.40;99.90
19025;DHT22;9645;51.448;6.260;2024-01-30T08:12:23;7.50;99.90
19025;DHT22;9645;51.448;6.260;2024-01-30T08:14:50;7.50;99.90
19025;DHT22;9645;51.448;6.260;2024-01-30T08:17:17;7.50;99.90
19025;DHT22;9645;51.448;6.260;2024-01-30T08:19:44;7.60;99.90
19025;DHT22;9645;51.448;6.260;2024-01-30T08:22:12;7.70;99.90
19025;DHT22;9645;51.448;6.260;2024-01-30T08:24:41;7.70;99.90
19025;DHT22;9645;51.448;6.260;2024-01-30T08:27:08;7.70;99.90
19025;DHT22;9645;51.448;6.260;2024-01-30T08:29:35;7.70;99.90
19025;DHT22;9645;51.448;6.260;2024-01-30T08:32:03;7.70;99.90
19025;DHT22;9645;51.448;6.260;2024-01-30T08:34:30;7.80;99.90
19025;DHT22;9645;51.448;6.260;2024-01-30T08:36:57;7.70;99.90
19025;DHT22;9645;51.448;6.260;2024-01-30T08:39:24;7.70;99.90
19025;DHT22;9645;51.448;6.260;2024-01-30T08:41:52;7.70;99.90
19025;DHT22;9645;51.448;6.260;2024-01-30T08:44:19;7.70;99.90
19025;DHT22;9645;51.448;6.260;2024-01-30T08:46:46;7.80;99.90
19025;DHT22;9645;51.448;6.260;2024-01-30T08:49:16;7.80;99.90
19025;DHT22;9645;51.448;6.260;2024-01-30T08:51:43;7.90;99.90
19025;DHT22;9645;51.448;6.260;2024-01-30T08:54:10;8.00;99.90
19025;DHT22;9645;51.448;6.260;2024-01-30T08:56:37;8.10;99.90
19025;DHT22;9645;51.448;6.260;2024-01-30T08:59:05;8.20;99.90
19025;DHT22;9645;51.448;6.260;2024-01-30T09:01:32;8.20;99.90
19025;DHT22;9645;51.448;6.260;2024-01-30T09:03:59;8.30;99.90
19025;DHT22;9645;51.448;6.260;2024-01-30T09:06:26;8.50;99.90
19025;DHT22;9645;51.448;6.260;2024-01-30T09:08:54;8.60;99.90
19025;DHT22;9645;51.448;6.260;2024-01-30T09:11:23;8.80;99.90
19025;DHT22;9645;51.448;6.260;2024-01-30T09:13:50;8.90;99.90
19025;DHT22;9645;51.448;6.260;2024-01-30T09:16:18;9.10;99.90
19025;DHT22;9645;51.448;6.260;2024-01-30T09:18:45;9.20;99.90
19025;DHT22;9645;51.448;6.260;2024-01-30T09:21:12;9.40;99.90
19025;DHT22;9645;51.448;6.260;2024-01-30T09:23:39;9.50;99.90
19025;DHT22;9645;51.448;6.260;2024-01-30T09:26:06;9.60;99.90
19025;DHT22;9645;51.448;6.260;2024-01-30T09:28:33;9.80;99.90
19025;DHT22;9645;51.448;6.260;2024-01-30T09:31:00;10.10;1.00
19025;DHT22;9645;51.448;6.260;2024-01-30T09:33:29;10.40;1.00
19025;DHT22;9645;51.448;6.260;2024-01-30T09:35:56;11.10;1.00
19025;DHT22;9645;51.448;6.260;2024-01-30T09:38:23;10.60;1.00
19025;DHT22;9645;51.448;6.260;2024-01-30T09:40:54;10.60;1.00
19025;DHT22;9645;51.448;6.260;2024-01-30T09:43:23;10.50;1.00
19025;DHT22;9645;51.448;6.260;2024-01-30T09:45:50;10.40;1.00
19025;DHT22;9645;51.448;6.260;2024-01-30T09:48:17;10.40;1.00
19025;DHT22;9645;51.448;6.260;2024-01-30T09:50:46;10.40;1.00
19025;DHT22;9645;51.448;6.260;2024-01-30T09:53:13;10.40;1.00
19025;DHT22;9645;51.448;6.260;2024-01-30T09:55:43;10.30;40.10
19025;DHT22;9645;51.448;6.260;2024-01-30T09:58:11;10.40;99.90
19025;DHT22;9645;51.448;6.260;2024-01-30T10:00:38;10.40;99.90
19025;DHT22;9645;51.448;6.260;2024-01-30T10:03:05;10.40;99.90
19025;DHT22;9645;51.448;6.260;2024-01-30T10:05:32;10.50;99.90
19025;DHT22;9645;51.448;6.260;2024-01-30T10:08:06;10.60;1.00
19025;DHT22;9645;51.448;6.260;2024-01-30T10:10:34;10.70;1.00
19025;DHT22;9645;51.448;6.260;2024-01-30T10:13:01;10.70;1.00
19025;DHT22;9645;51.448;6.260;2024-01-30T10:15:28;10.90;78.70
19025;DHT22;9645;51.448;6.260;2024-01-30T10:17:55;11.00;1.00
19025;DHT22;9645;51.448;6.260;2024-01-30T10:20:25;11.00;1.00
19025;DHT22;9645;51.448;6.260;2024-01-30T10:22:52;11.10;1.00
19025;DHT22;9645;51.448;6.260;2024-01-30T10:25:21;11.10;99.90
19025;DHT22;9645;51.448;6.260;2024-01-30T10:27:52;11.10;99.90
19025;DHT22;9645;51.448;6.260;2024-01-30T10:30:20;11.10;1.00
19025;DHT22;9645;51.448;6.260;2024-01-30T10:32:47;11.10;1.00
19025;DHT22;9645;51.448;6.260;2024-01-30T10:35:15;11.20;99.90
19025;DHT22;9645;51.448;6.260;2024-01-30T10:37:43;11.20;99.90
19025;DHT22;9645;51.448;6.260;2024-01-30T10:40:13;11.20;99.90
19025;DHT22;9645;51.448;6.260;2024-01-30T10:42:43;11.30;99.90
19025;DHT22;9645;51.448;6.260;2024-01-30T10:45:11;11.30;99.90
19025;DHT22;9645;51.448;6.260;2024-01-30T10:47:40;11.30;99.90
19025;DHT22;9645;51.448;6.260;2024-01-30T10:50:08;11.30;99.90
19025;DHT22;9645;51.448;6.260;2024-01-30T10:52:36;11.30;99.90
19025;DHT22;9645;51.448;6.260;2024-01-30T10:55:04;11.30;99.90
19025;DHT22;9645;51.448;6.260;2024-01-30T10:57:34;11.40;20.30
19025;DHT22;9645;51.448;6.260;2024-01-30T11:00:05;11.40;99.90
19025;DHT22;9645;51.448;6.260;2024-01-30T11:02:37;11.40;99.90
19025;DHT22;9645;51.448;6.260;2024-01-30T11:05:05;11.50;1.00
19025;DHT22;9645;51.448;6.260;2024-01-30T11:07:32;11.50;1.00
19025;DHT22;9645;51.448;6.260;2024-01-30T11:10:01;11.50;1.00
19025;DHT22;9645;51.448;6.260;2024-01-30T11:12:29;11.60;99.90
19025;DHT22;9645;51.448;6.260;2024-01-30T11:15:07;11.50;99.90
19025;DHT22;9645;51.448;6.260;2024-01-30T11:17:45;11.50;1.00
19025;DHT22;9645;51.448;6.260;2024-01-30T11:20:15;11.50;99.90
19025;DHT22;9645;51.448;6.260;2024-01-30T11:22:45;11.40;1.00
19025;DHT22;9645;51.448;6.260;2024-01-30T11:25:13;11.40;1.00
19025;DHT22;9645;51.448;6.260;2024-01-30T11:27:41;11.50;1.00
19025;DHT22;9645;51.448;6.260;2024-01-30T11:30:10;11.40;1.00
19025;DHT22;9645;51.448;6.260;2024-01-30T11:32:37;11.40;1.00
19025;DHT22;9645;51.448;6.260;2024-01-30T11:35:05;11.40;34.70
19025;DHT22;9645;51.448;6.260;2024-01-30T11:37:37;11.40;99.90
19025;DHT22;9645;51.448;6.260;2024-01-30T11:40:05;11.50;34.70
19025;DHT22;9645;51.448;6.260;2024-01-30T11:42:32;11.50;39.80
19025;DHT22;9645;51.448;6.260;2024-01-30T11:45:01;11.50;99.90
19025;DHT22;9645;51.448;6.260;2024-01-30T11:47:30;11.60;1.00
19025;DHT22;9645;51.448;6.260;2024-01-30T11:49:57;11.80;1.00
19025;DHT22;9645;51.448;6.260;2024-01-30T11:52:24;11.80;99.90
19025;DHT22;9645;51.448;6.260;2024-01-30T11:54:51;11.90;1.00
19025;DHT22;9645;51.448;6.260;2024-01-30T11:57:18;11.90;17.40
19025;DHT22;9645;51.448;6.260;2024-01-30T11:59:45;11.90;1.00
19025;DHT22;9645;51.448;6.260;2024-01-30T12:02:15;11.90;33.20
19025;DHT22;9645;51.448;6.260;2024-01-30T12:04:45;11.90;99.90
19025;DHT22;9645;51.448;6.260;2024-01-30T12:07:12;11.90;1.00
19025;DHT22;9645;51.448;6.260;2024-01-30T12:09:41;11.90;1.00
19025;DHT22;9645;51.448;6.260;2024-01-30T12:12:08;11.90;1.00
19025;DHT22;9645;51.448;6.260;2024-01-30T12:14:38;12.00;1.00
19025;DHT22;9645;51.448;6.260;2024-01-30T12:17:05;12.00;1.00
19025;DHT22;9645;51.448;6.260;2024-01-30T12:19:34;12.10;99.90
19025;DHT22;9645;51.448;6.260;2024-01-30T12:22:02;12.10;1.00
19025;DHT22;9645;51.448;6.260;2024-01-30T12:24:29;12.20;1.00
19025;DHT22;9645;51.448;6.260;2024-01-30T12:26:57;12.20;1.00
19025;DHT22;9645;51.448;6.260;2024-01-30T12:29:24;12.20;1.00
19025;DHT22;9645;51.448;6.260;2024-01-30T12:31:53;12.20;1.00
19025;DHT22;9645;51.448;6.260;2024-01-30T12:34:20;12.20;1.00
19025;DHT22;9645;51.448;6.260;2024-01-30T12:36:47;12.30;1.00
19025;DHT22;9645;51.448;6.260;2024-01-30T12:39:17;12.40;99.90
19025;DHT22;9645;51.448;6.260;2024-01-30T12:41:44;12.50;99.90
19025;DHT22;9645;51.448;6.260;2024-01-30T12:44:13;12.60;1.00
19025;DHT22;9645;51.448;6.260;2024-01-30T12:46:40;12.50;1.00
19025;DHT22;9645;51.448;6.260;2024-01-30T12:49:07;12.50;99.90
19025;DHT22;9645;51.448;6.260;2024-01-30T12:51:34;12.40;99.90
19025;DHT22;9645;51.448;6.260;2024-01-30T12:54:05;12.40;1.00
19025;DHT22;9645;51.448;6.260;2024-01-30T12:56:33;12.50;36.00
19025;DHT22;9645;51.448;6.260;2024-01-30T12:59:00;12.40;99.90
19025;DHT22;9645;51.448;6.260;2024-01-30T13:01:29;12.40;99.90
19025;DHT22;9645;51.448;6.260;2024-01-30T13:03:58;12.40;1.00
19025;DHT22;9645;51.448;6.260;2024-01-30T13:06:25;12.40;1.00
19025;DHT22;9645;51.448;6.260;2024-01-30T13:08:52;12.40;99.90
19025;DHT22;9645;51.448;6.260;2024-01-30T13:11:19;12.40;99.90
19025;DHT22;9645;51.448;6.260;2024-01-30T13:13:47;12.30;1.00
19025;DHT22;9645;51.448;6.260;2024-01-30T13:16:14;12.30;1.00
19025;DHT22;9645;51.448;6.260;2024-01-30T13:18:41;12.30;1.00
19025;DHT22;9645;51.448;6.260;2024-01-30T13:21:08;12.20;99.90
19025;DHT22;9645;51.448;6.260;2024-01-30T13:23:35;12.30;53.50
19025;DHT22;9645;51.448;6.260;2024-01-30T13:26:02;12.20;99.90
19025;DHT22;9645;51.448;6.260;2024-01-30T13:28:29;12.20;99.90
19025;DHT22;9645;51.448;6.260;2024-01-30T13:30:57;12.20;1.00
19025;DHT22;9645;51.448;6.260;2024-01-30T13:33:24;12.10;99.90
19025;DHT22;9645;51.448;6.260;2024-01-30T13:35:51;12.10;1.00
19025;DHT22;9645;51.448;6.260;2024-01-30T13:38:18;12.10;99.90
19025;DHT22;9645;51.448;6.260;2024-01-30T13:40:46;12.00;99.90
19025;DHT22;9645;51.448;6.260;2024-01-30T13:43:13;11.90;1.00
19025;DHT22;9645;51.448;6.260;2024-01-30T13:45:41;11.80;99.90
19025;DHT22;9645;51.448;6.260;2024-01-30T13:48:10;11.80;1.00
19025;DHT22;9645;51.448;6.260;2024-01-30T13:50:37;11.80;1.00
19025;DHT22;9645;51.448;6.260;2024-01-30T13:53:04;11.80;1.00
19025;DHT22;9645;51.448;6.260;2024-01-30T13:55:31;11.70;1.00
19025;DHT22;9645;51.448;6.260;2024-01-30T13:57:58;11.80;1.00
19025;DHT22;9645;51.448;6.260;2024-01-30T14:00:25;11.80;1.00
19025;DHT22;9645;51.448;6.260;2024-01-30T14:02:52;11.80;1.00
19025;DHT22;9645;51.448;6.260;2024-01-30T14:05:21;11.80;1.00
19025;DHT22;9645;51.448;6.260;2024-01-30T14:07:48;11.90;1.00
19025;DHT22;9645;51.448;6.260;2024-01-30T14:10:15;11.80;99.90
19025;DHT22;9645;51.448;6.260;2024-01-30T14:12:43;11.80;99.90
19025;DHT22;9645;51.448;6.260;2024-01-30T14:15:11;11.70;99.90
19025;DHT22;9645;51.448;6.260;2024-01-30T14:17:38;11.80;99.90
19025;DHT22;9645;51.448;6.260;2024-01-30T14:20:06;11.80;94.90
19025;DHT22;9645;51.448;6.260;2024-01-30T14:22:35;11.80;99.90
19025;DHT22;9645;51.448;6.260;2024-01-30T14:25:02;11.80;1.00
19025;DHT22;9645;51.448;6.260;2024-01-30T14:27:29;11.80;1.00
19025;DHT22;9645;51.448;6.260;2024-01-30T14:29:56;11.70;1.00
19025;DHT22;9645;51.448;6.260;2024-01-30T14:32:23;11.70;1.00
19025;DHT22;9645;51.448;6.260;2024-01-30T14:34:51;11.60;1.00
19025;DHT22;9645;51.448;6.260;2024-01-30T14:37:18;11.50;1.00
19025;DHT22;9645;51.448;6.260;2024-01-30T14:39:47;11.30;1.00
19025;DHT22;9645;51.448;6.260;2024-01-30T14:42:14;11.20;1.00
19025;DHT22;9645;51.448;6.260;2024-01-30T14:44:42;11.20;1.00
19025;DHT22;9645;51.448;6.260;2024-01-30T14:47:09;11.10;1.00
19025;DHT22;9645;51.448;6.260;2024-01-30T14:49:38;11.00;1.00
19025;DHT22;9645;51.448;6.260;2024-01-30T14:52:05;11.00;1.00
19025;DHT22;9645;51.448;6.260;2024-01-30T14:54:32;10.90;1.00
19025;DHT22;9645;51.448;6.260;2024-01-30T14:57:01;10.90;1.00
19025;DHT22;9645;51.448;6.260;2024-01-30T14:59:28;10.80;1.00
19025;DHT22;9645;51.448;6.260;2024-01-30T15:01:55;10.80;1.00
19025;DHT22;9645;51.448;6.260;2024-01-30T15:04:22;10.80;1.00
19025;DHT22;9645;51.448;6.260;2024-01-30T15:06:49;10.80;1.00
19025;DHT22;9645;51.448;6.260;2024-01-30T15:09:16;10.70;1.00
19025;DHT22;9645;51.448;6.260;2024-01-30T15:11:44;10.60;1.00
19025;DHT22;9645;51.448;6.260;2024-01-30T15:14:13;10.60;1.00
19025;DHT22;9645;51.448;6.260;2024-01-30T15:16:40;10.60;1.00
19025;DHT22;9645;51.448;6.260;2024-01-30T15:19:08;10.60;1.00
19025;DHT22;9645;51.448;6.260;2024-01-30T15:21:35;10.70;1.00
19025;DHT22;9645;51.448;6.260;2024-01-30T15:24:03;10.60;1.00
19025;DHT22;9645;51.448;6.260;2024-01-30T15:26:30;10.60;1.00
19025;DHT22;9645;51.448;6.260;2024-01-30T15:28:57;10.50;1.00
19025;DHT22;9645;51.448;6.260;2024-01-30T15:31:26;10.50;1.00
19025;DHT22;9645;51.448;6.260;2024-01-30T15:33:53;10.50;1.00
19025;DHT22;9645;51.448;6.260;2024-01-30T15:36:20;10.40;1.00
19025;DHT22;9645;51.448;6.260;2024-01-30T15:38:47;10.40;1.00
19025;DHT22;9645;51.448;6.260;2024-01-30T15:41:14;10.30;1.00
19025;DHT22;9645;51.448;6.260;2024-01-30T15:43:41;10.40;1.00
19025;DHT22;9645;51.448;6.260;2024-01-30T15:46:08;10.40;1.00
19025;DHT22;9645;51.448;6.260;2024-01-30T15:48:36;10.40;1.00
19025;DHT22;9645;51.448;6.260;2024-01-30T15:51:03;10.40;1.00
19025;DHT22;9645;51.448;6.260;2024-01-30T15:53:31;10.40;1.00
19025;DHT22;9645;51.448;6.260;2024-01-30T15:56:01;10.40;99.90
19025;DHT22;9645;51.448;6.260;2024-01-30T15:58:29;10.40;1.00
19025;DHT22;9645;51.448;6.260;2024-01-30T16:00:56;10.30;1.00
19025;DHT22;9645;51.448;6.260;2024-01-30T16:03:23;10.30;1.00
19025;DHT22;9645;51.448;6.260;2024-01-30T16:05:51;10.30;1.00
19025;DHT22;9645;51.448;6.260;2024-01-30T16:08:18;10.40;1.00
19025;DHT22;9645;51.448;6.260;2024-01-30T16:10:45;10.30;1.00
19025;DHT22;9645;51.448;6.260;2024-01-30T16:13:14;10.20;1.00
19025;DHT22;9645;51.448;6.260;2024-01-30T16:15:41;10.10;1.00
19025;DHT22;9645;51.448;6.260;2024-01-30T16:18:09;10.10;99.90
19025;DHT22;9645;51.448;6.260;2024-01-30T16:20:36;9.90;1.00